Información del aeropuerto SCTN

Información de pista
Pista 13 Longitud 4670 ft Anchura 65 ft
Elevación 0 ft Umbral 105 ft Rumbo 137
Pista 31 Longitud 4670 ft Anchura 65 ft
Elevación 0 ft Umbral 0 ft Rumbo 317
Frecuencias del aeropuerto
Tipo INFO Nombre INFO Frecuencia 126.7 MHZ
Radioayudas del aeropuerto
Tipo NDB Nombre Chaiten Frecuencia 234 KHZ
Información meteorológica del aeropuerto y NOTAM
ADDS - METARS form results

(0425 UTC 22 September 2021)
Data provider http://aviationweather.gov/metar/data/
 
METAR text: SCTN 220400Z AUTO 18008KT 9999 OVC009 09/08 Q1016
Conditions at: SCTN (CHAITEN , CL) observed 0400 UTC 22 September 2021
Temperature: 9.0°C (48°F)
Dewpoint: 8.0°C (46°F) [RH = 93%]
Pressure (altimeter): 30.00 inches Hg (1016.0 mb)
Winds: from the S (180 degrees) at 9 MPH (8 knots; 4.1 m/s)
Visibility: 6 or more miles (10+ km)
Ceiling: 900 feet AGL
Clouds: overcast cloud deck at 900 feet AGL
Weather: no significant weather observed at this time